sensor_id;sensor_type;location;lat;lon;timestamp;temperature;humidity
41533;DHT22;27262;-35.248;149.138;2022-11-27T00:01:38;20.70;64.80
41533;DHT22;27262;-35.248;149.138;2022-11-27T00:04:09;20.70;64.80
41533;DHT22;27262;-35.248;149.138;2022-11-27T00:06:41;20.70;64.70
41533;DHT22;27262;-35.248;149.138;2022-11-27T00:09:14;20.70;64.70
41533;DHT22;27262;-35.248;149.138;2022-11-27T00:11:45;20.70;64.60
41533;DHT22;27262;-35.248;149.138;2022-11-27T00:14:16;20.70;64.50
41533;DHT22;27262;-35.248;149.138;2022-11-27T00:16:47;20.70;64.50
41533;DHT22;27262;-35.248;149.138;2022-11-27T00:19:17;20.80;64.50
41533;DHT22;27262;-35.248;149.138;2022-11-27T00:21:48;20.70;64.40
41533;DHT22;27262;-35.248;149.138;2022-11-27T00:24:18;20.70;64.40
41533;DHT22;27262;-35.248;149.138;2022-11-27T00:26:48;20.80;64.40
41533;DHT22;27262;-35.248;149.138;2022-11-27T00:29:18;20.80;64.40
41533;DHT22;27262;-35.248;149.138;2022-11-27T00:31:48;20.80;64.30
41533;DHT22;27262;-35.248;149.138;2022-11-27T00:34:19;20.80;64.30
41533;DHT22;27262;-35.248;149.138;2022-11-27T00:36:49;20.80;64.30
41533;DHT22;27262;-35.248;149.138;2022-11-27T00:39:19;20.80;64.20
41533;DHT22;27262;-35.248;149.138;2022-11-27T00:41:50;20.80;64.20
41533;DHT22;27262;-35.248;149.138;2022-11-27T00:44:20;20.80;64.20
41533;DHT22;27262;-35.248;149.138;2022-11-27T00:46:50;20.90;64.30
41533;DHT22;27262;-35.248;149.138;2022-11-27T00:49:21;20.90;64.30
41533;DHT22;27262;-35.248;149.138;2022-11-27T00:51:51;20.90;64.30
41533;DHT22;27262;-35.248;149.138;2022-11-27T00:54:21;20.90;64.40
41533;DHT22;27262;-35.248;149.138;2022-11-27T00:56:52;20.90;64.40
41533;DHT22;27262;-35.248;149.138;2022-11-27T00:59:22;20.90;64.40
41533;DHT22;27262;-35.248;149.138;2022-11-27T01:01:53;20.90;64.50
41533;DHT22;27262;-35.248;149.138;2022-11-27T01:04:23;20.90;64.50
41533;DHT22;27262;-35.248;149.138;2022-11-27T01:06:53;20.90;64.50
41533;DHT22;27262;-35.248;149.138;2022-11-27T01:09:23;20.90;64.50
41533;DHT22;27262;-35.248;149.138;2022-11-27T01:11:54;21.00;64.60
41533;DHT22;27262;-35.248;149.138;2022-11-27T01:14:24;21.00;64.60
41533;DHT22;27262;-35.248;149.138;2022-11-27T01:16:54;21.00;64.40
41533;DHT22;27262;-35.248;149.138;2022-11-27T01:19:25;21.00;64.40
41533;DHT22;27262;-35.248;149.138;2022-11-27T01:21:55;21.00;64.30
41533;DHT22;27262;-35.248;149.138;2022-11-27T01:24:25;21.00;64.30
41533;DHT22;27262;-35.248;149.138;2022-11-27T01:26:56;21.00;64.20
41533;DHT22;27262;-35.248;149.138;2022-11-27T01:29:26;21.10;64.30
41533;DHT22;27262;-35.248;149.138;2022-11-27T01:31:56;21.10;64.20
41533;DHT22;27262;-35.248;149.138;2022-11-27T01:34:26;21.10;64.20
41533;DHT22;27262;-35.248;149.138;2022-11-27T01:36:57;21.10;64.10
41533;DHT22;27262;-35.248;149.138;2022-11-27T01:39:27;21.10;64.10
41533;DHT22;27262;-35.248;149.138;2022-11-27T01:41:57;21.10;64.00
41533;DHT22;27262;-35.248;149.138;2022-11-27T01:47:10;21.10;64.00
41533;DHT22;27262;-35.248;149.138;2022-11-27T01:49:50;21.20;64.00
41533;DHT22;27262;-35.248;149.138;2022-11-27T01:52:41;21.20;64.00
41533;DHT22;27262;-35.248;149.138;2022-11-27T01:55:30;21.20;64.10
41533;DHT22;27262;-35.248;149.138;2022-11-27T01:58:11;21.20;64.00
41533;DHT22;27262;-35.248;149.138;2022-11-27T02:00:42;21.20;64.00
41533;DHT22;27262;-35.248;149.138;2022-11-27T02:03:13;21.20;64.10
41533;DHT22;27262;-35.248;149.138;2022-11-27T02:05:44;21.20;64.00
41533;DHT22;27262;-35.248;149.138;2022-11-27T02:08:16;21.30;64.00
41533;DHT22;27262;-35.248;149.138;2022-11-27T02:11:05;21.30;64.00
41533;DHT22;27262;-35.248;149.138;2022-11-27T02:14:10;21.20;63.90
41533;DHT22;27262;-35.248;149.138;2022-11-27T02:31:46;21.50;61.50
41533;DHT22;27262;-35.248;149.138;2022-11-27T02:37:13;21.50;61.20
41533;DHT22;27262;-35.248;149.138;2022-11-27T02:42:42;21.50;59.80
41533;DHT22;27262;-35.248;149.138;2022-11-27T02:45:16;21.50;60.10
41533;DHT22;27262;-35.248;149.138;2022-11-27T02:47:50;21.50;59.90
41533;DHT22;27262;-35.248;149.138;2022-11-27T02:50:22;21.50;59.40
41533;DHT22;27262;-35.248;149.138;2022-11-27T02:52:57;21.50;59.30
41533;DHT22;27262;-35.248;149.138;2022-11-27T02:55:32;21.60;59.20
41533;DHT22;27262;-35.248;149.138;2022-11-27T02:58:08;21.50;58.40
41533;DHT22;27262;-35.248;149.138;2022-11-27T03:00:41;21.60;58.60
41533;DHT22;27262;-35.248;149.138;2022-11-27T03:03:17;21.60;58.30
41533;DHT22;27262;-35.248;149.138;2022-11-27T03:05:51;21.60;58.90
41533;DHT22;27262;-35.248;149.138;2022-11-27T03:08:39;21.60;58.90
41533;DHT22;27262;-35.248;149.138;2022-11-27T03:11:13;21.60;58.00
41533;DHT22;27262;-35.248;149.138;2022-11-27T03:13:47;21.60;58.10
41533;DHT22;27262;-35.248;149.138;2022-11-27T03:16:26;21.60;57.90
41533;DHT22;27262;-35.248;149.138;2022-11-27T03:21:56;21.70;57.20
41533;DHT22;27262;-35.248;149.138;2022-11-27T03:24:28;21.70;57.00
41533;DHT22;27262;-35.248;149.138;2022-11-27T03:26:59;21.70;56.10
41533;DHT22;27262;-35.248;149.138;2022-11-27T03:29:54;21.70;56.10
41533;DHT22;27262;-35.248;149.138;2022-11-27T03:32:26;21.70;55.50
41533;DHT22;27262;-35.248;149.138;2022-11-27T03:34:57;21.70;56.20
41533;DHT22;27262;-35.248;149.138;2022-11-27T03:37:28;21.70;56.60
41533;DHT22;27262;-35.248;149.138;2022-11-27T03:39:59;21.70;56.10
41533;DHT22;27262;-35.248;149.138;2022-11-27T03:45:28;21.80;56.00
41533;DHT22;27262;-35.248;149.138;2022-11-27T03:48:14;21.80;56.40
41533;DHT22;27262;-35.248;149.138;2022-11-27T03:56:41;21.80;56.10
41533;DHT22;27262;-35.248;149.138;2022-11-27T03:59:18;21.90;55.80
41533;DHT22;27262;-35.248;149.138;2022-11-27T04:01:50;21.90;56.50
41533;DHT22;27262;-35.248;149.138;2022-11-27T04:04:21;21.90;56.40
41533;DHT22;27262;-35.248;149.138;2022-11-27T04:06:51;21.90;56.40
41533;DHT22;27262;-35.248;149.138;2022-11-27T04:09:21;22.00;56.40
41533;DHT22;27262;-35.248;149.138;2022-11-27T04:11:51;22.00;56.30
41533;DHT22;27262;-35.248;149.138;2022-11-27T04:14:22;22.00;56.00
41533;DHT22;27262;-35.248;149.138;2022-11-27T04:16:52;22.00;55.70
41533;DHT22;27262;-35.248;149.138;2022-11-27T04:19:23;22.00;55.80
41533;DHT22;27262;-35.248;149.138;2022-11-27T04:21:53;22.00;55.80
41533;DHT22;27262;-35.248;149.138;2022-11-27T04:24:24;22.10;55.30
41533;DHT22;27262;-35.248;149.138;2022-11-27T04:26:54;22.10;55.40
41533;DHT22;27262;-35.248;149.138;2022-11-27T04:29:24;22.10;55.70
41533;DHT22;27262;-35.248;149.138;2022-11-27T04:31:54;22.10;55.90
41533;DHT22;27262;-35.248;149.138;2022-11-27T04:34:25;22.10;56.10
41533;DHT22;27262;-35.248;149.138;2022-11-27T04:36:55;22.10;56.50
41533;DHT22;27262;-35.248;149.138;2022-11-27T04:39:26;22.10;56.80
41533;DHT22;27262;-35.248;149.138;2022-11-27T04:41:56;22.10;57.10
41533;DHT22;27262;-35.248;149.138;2022-11-27T04:44:26;22.10;57.20
41533;DHT22;27262;-35.248;149.138;2022-11-27T04:46:56;22.10;57.30
41533;DHT22;27262;-35.248;149.138;2022-11-27T04:49:27;22.10;57.50
41533;DHT22;27262;-35.248;149.138;2022-11-27T04:51:57;22.10;57.10
41533;DHT22;27262;-35.248;149.138;2022-11-27T04:54:27;22.10;57.10
41533;DHT22;27262;-35.248;149.138;2022-11-27T04:56:58;22.20;57.30
41533;DHT22;27262;-35.248;149.138;2022-11-27T04:59:28;22.20;57.50
41533;DHT22;27262;-35.248;149.138;2022-11-27T05:01:59;22.20;57.60
41533;DHT22;27262;-35.248;149.138;2022-11-27T05:04:29;22.20;57.70
41533;DHT22;27262;-35.248;149.138;2022-11-27T05:06:59;22.20;57.80
41533;DHT22;27262;-35.248;149.138;2022-11-27T05:09:30;22.20;57.80
41533;DHT22;27262;-35.248;149.138;2022-11-27T05:12:00;22.20;57.80
41533;DHT22;27262;-35.248;149.138;2022-11-27T05:14:30;22.20;57.80
41533;DHT22;27262;-35.248;149.138;2022-11-27T05:17:00;22.20;57.60
41533;DHT22;27262;-35.248;149.138;2022-11-27T05:19:31;22.20;57.50
41533;DHT22;27262;-35.248;149.138;2022-11-27T05:22:01;22.20;57.50
41533;DHT22;27262;-35.248;149.138;2022-11-27T05:24:32;22.20;57.40
41533;DHT22;27262;-35.248;149.138;2022-11-27T05:27:02;22.20;57.40
41533;DHT22;27262;-35.248;149.138;2022-11-27T05:29:32;22.20;57.30
41533;DHT22;27262;-35.248;149.138;2022-11-27T05:32:03;22.20;57.20
41533;DHT22;27262;-35.248;149.138;2022-11-27T05:34:33;22.30;57.30
41533;DHT22;27262;-35.248;149.138;2022-11-27T05:37:03;22.30;57.40
41533;DHT22;27262;-35.248;149.138;2022-11-27T05:39:34;22.30;57.40
41533;DHT22;27262;-35.248;149.138;2022-11-27T05:42:04;22.30;57.40
41533;DHT22;27262;-35.248;149.138;2022-11-27T05:44:35;22.30;57.60
41533;DHT22;27262;-35.248;149.138;2022-11-27T05:47:05;22.30;57.60
41533;DHT22;27262;-35.248;149.138;2022-11-27T05:49:36;22.30;57.70
41533;DHT22;27262;-35.248;149.138;2022-11-27T05:52:07;22.30;57.80
41533;DHT22;27262;-35.248;149.138;2022-11-27T05:54:37;22.30;57.80
41533;DHT22;27262;-35.248;149.138;2022-11-27T05:57:08;22.30;57.90
41533;DHT22;27262;-35.248;149.138;2022-11-27T05:59:38;22.30;57.90
41533;DHT22;27262;-35.248;149.138;2022-11-27T06:02:09;22.30;57.90
41533;DHT22;27262;-35.248;149.138;2022-11-27T06:04:47;22.30;58.00
41533;DHT22;27262;-35.248;149.138;2022-11-27T06:07:18;22.30;58.10
41533;DHT22;27262;-35.248;149.138;2022-11-27T06:09:48;22.30;58.20
41533;DHT22;27262;-35.248;149.138;2022-11-27T06:12:19;22.30;58.20
41533;DHT22;27262;-35.248;149.138;2022-11-27T06:14:49;22.30;58.20
41533;DHT22;27262;-35.248;149.138;2022-11-27T06:17:19;22.30;58.20
41533;DHT22;27262;-35.248;149.138;2022-11-27T06:19:49;22.30;58.30
41533;DHT22;27262;-35.248;149.138;2022-11-27T06:22:20;22.30;58.40
41533;DHT22;27262;-35.248;149.138;2022-11-27T06:24:50;22.30;58.50
41533;DHT22;27262;-35.248;149.138;2022-11-27T06:27:20;22.30;58.60
41533;DHT22;27262;-35.248;149.138;2022-11-27T06:29:50;22.30;58.70
41533;DHT22;27262;-35.248;149.138;2022-11-27T06:32:21;22.40;58.70
41533;DHT22;27262;-35.248;149.138;2022-11-27T06:34:51;22.40;58.80
41533;DHT22;27262;-35.248;149.138;2022-11-27T06:37:22;22.50;59.00
41533;DHT22;27262;-35.248;149.138;2022-11-27T06:39:52;22.50;59.10
41533;DHT22;27262;-35.248;149.138;2022-11-27T06:42:22;22.50;59.10
41533;DHT22;27262;-35.248;149.138;2022-11-27T06:44:52;22.50;59.30
41533;DHT22;27262;-35.248;149.138;2022-11-27T06:47:23;22.50;59.40
41533;DHT22;27262;-35.248;149.138;2022-11-27T06:49:53;22.50;59.40
41533;DHT22;27262;-35.248;149.138;2022-11-27T06:52:23;22.50;59.50
41533;DHT22;27262;-35.248;149.138;2022-11-27T06:54:54;22.50;59.50
41533;DHT22;27262;-35.248;149.138;2022-11-27T06:57:24;22.50;59.50
41533;DHT22;27262;-35.248;149.138;2022-11-27T06:59:54;22.60;59.50
41533;DHT22;27262;-35.248;149.138;2022-11-27T07:02:25;22.50;59.50
41533;DHT22;27262;-35.248;149.138;2022-11-27T07:04:55;22.60;59.50
41533;DHT22;27262;-35.248;149.138;2022-11-27T07:07:25;22.60;59.50
41533;DHT22;27262;-35.248;149.138;2022-11-27T07:09:55;22.60;59.50
41533;DHT22;27262;-35.248;149.138;2022-11-27T07:12:26;22.60;59.50
41533;DHT22;27262;-35.248;149.138;2022-11-27T07:14:56;22.60;59.40
41533;DHT22;27262;-35.248;149.138;2022-11-27T07:17:31;22.60;59.40
41533;DHT22;27262;-35.248;149.138;2022-11-27T07:20:01;22.60;59.40
41533;DHT22;27262;-35.248;149.138;2022-11-27T07:22:34;22.60;59.40
41533;DHT22;27262;-35.248;149.138;2022-11-27T07:25:05;22.60;59.40
41533;DHT22;27262;-35.248;149.138;2022-11-27T07:27:35;22.60;59.40
41533;DHT22;27262;-35.248;149.138;2022-11-27T07:30:06;22.60;59.50
41533;DHT22;27262;-35.248;149.138;2022-11-27T07:32:37;22.60;59.50
41533;DHT22;27262;-35.248;149.138;2022-11-27T07:35:07;22.60;59.50
41533;DHT22;27262;-35.248;149.138;2022-11-27T07:37:38;22.60;59.50
41533;DHT22;27262;-35.248;149.138;2022-11-27T07:40:08;22.60;59.50
41533;DHT22;27262;-35.248;149.138;2022-11-27T07:42:41;22.60;59.50
41533;DHT22;27262;-35.248;149.138;2022-11-27T07:45:11;22.60;59.50
41533;DHT22;27262;-35.248;149.138;2022-11-27T07:47:42;22.60;59.60
41533;DHT22;27262;-35.248;149.138;2022-11-27T07:50:12;22.60;59.60
41533;DHT22;27262;-35.248;149.138;2022-11-27T07:52:42;22.60;59.60
41533;DHT22;27262;-35.248;149.138;2022-11-27T07:55:13;22.60;59.80
41533;DHT22;27262;-35.248;149.138;2022-11-27T07:57:44;22.60;59.70
41533;DHT22;27262;-35.248;149.138;2022-11-27T08:00:14;22.60;59.80
41533;DHT22;27262;-35.248;149.138;2022-11-27T08:02:45;22.60;59.90
41533;DHT22;27262;-35.248;149.138;2022-11-27T08:05:17;22.60;60.00
41533;DHT22;27262;-35.248;149.138;2022-11-27T08:07:47;22.60;60.20
41533;DHT22;27262;-35.248;149.138;2022-11-27T08:10:18;22.60;60.50
41533;DHT22;27262;-35.248;149.138;2022-11-27T08:12:50;22.60;60.60
41533;DHT22;27262;-35.248;149.138;2022-11-27T08:15:20;22.60;60.70
41533;DHT22;27262;-35.248;149.138;2022-11-27T08:17:51;22.60;60.70
41533;DHT22;27262;-35.248;149.138;2022-11-27T08:20:22;22.60;60.80
41533;DHT22;27262;-35.248;149.138;2022-11-27T08:22:54;22.60;60.80
41533;DHT22;27262;-35.248;149.138;2022-11-27T08:25:30;22.60;60.80
41533;DHT22;27262;-35.248;149.138;2022-11-27T08:28:01;22.60;60.80
41533;DHT22;27262;-35.248;149.138;2022-11-27T08:30:31;22.60;60.90
41533;DHT22;27262;-35.248;149.138;2022-11-27T08:33:01;22.60;60.90
41533;DHT22;27262;-35.248;149.138;2022-11-27T08:35:32;22.60;60.90
41533;DHT22;27262;-35.248;149.138;2022-11-27T08:38:04;22.60;60.90
41533;DHT22;27262;-35.248;149.138;2022-11-27T08:40:34;22.60;61.00
41533;DHT22;27262;-35.248;149.138;2022-11-27T08:43:05;22.60;61.00
41533;DHT22;27262;-35.248;149.138;2022-11-27T08:45:38;22.60;61.00
41533;DHT22;27262;-35.248;149.138;2022-11-27T08:48:08;22.60;60.90
41533;DHT22;27262;-35.248;149.138;2022-11-27T08:50:38;22.60;61.00
41533;DHT22;27262;-35.248;149.138;2022-11-27T08:53:09;22.60;61.00
41533;DHT22;27262;-35.248;149.138;2022-11-27T08:55:39;22.60;61.00
41533;DHT22;27262;-35.248;149.138;2022-11-27T08:58:09;22.60;60.90
41533;DHT22;27262;-35.248;149.138;2022-11-27T09:00:40;22.60;61.00
41533;DHT22;27262;-35.248;149.138;2022-11-27T09:03:11;22.60;61.00
41533;DHT22;27262;-35.248;149.138;2022-11-27T09:05:42;22.60;61.00
41533;DHT22;27262;-35.248;149.138;2022-11-27T09:08:13;22.60;61.00
41533;DHT22;27262;-35.248;149.138;2022-11-27T09:10:53;22.60;61.00
41533;DHT22;27262;-35.248;149.138;2022-11-27T09:13:23;22.60;61.00
41533;DHT22;27262;-35.248;149.138;2022-11-27T09:15:54;22.60;61.10
41533;DHT22;27262;-35.248;149.138;2022-11-27T09:18:25;22.60;61.20
41533;DHT22;27262;-35.248;149.138;2022-11-27T09:21:04;22.60;61.10
41533;DHT22;27262;-35.248;149.138;2022-11-27T09:23:35;22.60;61.10
41533;DHT22;27262;-35.248;149.138;2022-11-27T09:26:13;22.60;61.10
41533;DHT22;27262;-35.248;149.138;2022-11-27T09:28:44;22.60;61.10
41533;DHT22;27262;-35.248;149.138;2022-11-27T09:31:15;22.60;61.40
41533;DHT22;27262;-35.248;149.138;2022-11-27T09:33:45;22.60;61.50
41533;DHT22;27262;-35.248;149.138;2022-11-27T09:36:18;22.60;61.50
41533;DHT22;27262;-35.248;149.138;2022-11-27T09:38:49;22.60;61.50
41533;DHT22;27262;-35.248;149.138;2022-11-27T09:41:59;22.60;61.60
41533;DHT22;27262;-35.248;149.138;2022-11-27T09:44:41;22.60;61.40
41533;DHT22;27262;-35.248;149.138;2022-11-27T09:50:06;22.60;61.60
41533;DHT22;27262;-35.248;149.138;2022-11-27T09:55:30;22.60;61.90
41533;DHT22;27262;-35.248;149.138;2022-11-27T09:58:18;22.60;61.80
41533;DHT22;27262;-35.248;149.138;2022-11-27T10:00:49;22.60;61.60
41533;DHT22;27262;-35.248;149.138;2022-11-27T10:03:25;22.50;61.60
41533;DHT22;27262;-35.248;149.138;2022-11-27T10:20:24;22.50;61.40
41533;DHT22;27262;-35.248;149.138;2022-11-27T10:33:52;22.50;61.70
41533;DHT22;27262;-35.248;149.138;2022-11-27T10:39:01;22.50;62.20
41533;DHT22;27262;-35.248;149.138;2022-11-27T10:42:12;22.50;62.30
41533;DHT22;27262;-35.248;149.138;2022-11-27T10:44:58;22.50;62.40
41533;DHT22;27262;-35.248;149.138;2022-11-27T10:47:30;22.50;62.40
41533;DHT22;27262;-35.248;149.138;2022-11-27T10:50:00;22.50;62.40
41533;DHT22;27262;-35.248;149.138;2022-11-27T10:52:33;22.50;62.50
41533;DHT22;27262;-35.248;149.138;2022-11-27T10:55:08;22.50;62.40
41533;DHT22;27262;-35.248;149.138;2022-11-27T11:00:46;22.50;62.50
41533;DHT22;27262;-35.248;149.138;2022-11-27T11:03:17;22.50;62.60
41533;DHT22;27262;-35.248;149.138;2022-11-27T11:05:59;22.50;62.60
41533;DHT22;27262;-35.248;149.138;2022-11-27T11:08:47;22.50;62.50
41533;DHT22;27262;-35.248;149.138;2022-11-27T11:11:25;22.50;62.60
41533;DHT22;27262;-35.248;149.138;2022-11-27T11:13:56;22.50;62.60
41533;DHT22;27262;-35.248;149.138;2022-11-27T11:16:28;22.50;62.60
41533;DHT22;27262;-35.248;149.138;2022-11-27T11:19:02;22.50;62.60
41533;DHT22;27262;-35.248;149.138;2022-11-27T11:21:38;22.50;62.60
41533;DHT22;27262;-35.248;149.138;2022-11-27T11:24:23;22.50;62.60
41533;DHT22;27262;-35.248;149.138;2022-11-27T11:26:58;22.50;62.60
41533;DHT22;27262;-35.248;149.138;2022-11-27T11:32:28;22.50;62.50
41533;DHT22;27262;-35.248;149.138;2022-11-27T11:35:09;22.50;62.50
41533;DHT22;27262;-35.248;149.138;2022-11-27T11:37:43;22.40;63.30
41533;DHT22;27262;-35.248;149.138;2022-11-27T11:45:31;22.40;62.50
41533;DHT22;27262;-35.248;149.138;2022-11-27T11:48:18;22.40;62.50
41533;DHT22;27262;-35.248;149.138;2022-11-27T11:53:45;22.30;62.40
41533;DHT22;27262;-35.248;149.138;2022-11-27T11:56:32;22.40;62.50
41533;DHT22;27262;-35.248;149.138;2022-11-27T11:59:29;22.40;62.40
41533;DHT22;27262;-35.248;149.138;2022-11-27T12:02:23;22.30;62.40
41533;DHT22;27262;-35.248;149.138;2022-11-27T12:13:46;22.30;62.40
41533;DHT22;27262;-35.248;149.138;2022-11-27T12:16:39;22.30;62.40
41533;DHT22;27262;-35.248;149.138;2022-11-27T12:25:27;22.30;62.50
41533;DHT22;27262;-35.248;149.138;2022-11-27T12:31:01;22.20;62.50
41533;DHT22;27262;-35.248;149.138;2022-11-27T12:33:54;22.20;62.50
41533;DHT22;27262;-35.248;149.138;2022-11-27T12:36:31;22.20;62.60
41533;DHT22;27262;-35.248;149.138;2022-11-27T12:39:25;22.20;62.70
41533;DHT22;27262;-35.248;149.138;2022-11-27T12:42:19;22.20;62.60
41533;DHT22;27262;-35.248;149.138;2022-11-27T12:47:42;22.20;62.70
41533;DHT22;27262;-35.248;149.138;2022-11-27T12:50:19;22.20;62.70
41533;DHT22;27262;-35.248;149.138;2022-11-27T12:56:20;22.20;62.70
41533;DHT22;27262;-35.248;149.138;2022-11-27T12:59:21;22.10;62.70
41533;DHT22;27262;-35.248;149.138;2022-11-27T13:13:06;22.10;62.80
41533;DHT22;27262;-35.248;149.138;2022-11-27T13:18:34;22.10;62.90
41533;DHT22;27262;-35.248;149.138;2022-11-27T13:21:15;22.10;62.80
41533;DHT22;27262;-35.248;149.138;2022-11-27T13:23:47;22.10;62.90
41533;DHT22;27262;-35.248;149.138;2022-11-27T13:26:22;22.00;62.90
41533;DHT22;27262;-35.248;149.138;2022-11-27T13:29:27;22.00;62.80
41533;DHT22;27262;-35.248;149.138;2022-11-27T13:32:00;22.00;62.80
41533;DHT22;27262;-35.248;149.138;2022-11-27T13:34:40;22.00;62.90
41533;DHT22;27262;-35.248;149.138;2022-11-27T13:42:47;22.00;62.80
41533;DHT22;27262;-35.248;149.138;2022-11-27T13:45:29;22.00;62.90
41533;DHT22;27262;-35.248;149.138;2022-11-27T13:48:04;22.00;62.90
41533;DHT22;27262;-35.248;149.138;2022-11-27T13:50:44;22.00;62.90
41533;DHT22;27262;-35.248;149.138;2022-11-27T13:53:15;21.90;62.90
41533;DHT22;27262;-35.248;149.138;2022-11-27T13:55:54;21.90;62.90
41533;DHT22;27262;-35.248;149.138;2022-11-27T13:58:37;21.90;62.80
41533;DHT22;27262;-35.248;149.138;2022-11-27T14:01:26;21.90;62.80
41533;DHT22;27262;-35.248;149.138;2022-11-27T14:04:06;21.90;62.80
41533;DHT22;27262;-35.248;149.138;2022-11-27T14:06:38;21.90;62.90
41533;DHT22;27262;-35.248;149.138;2022-11-27T14:09:11;21.90;63.00
41533;DHT22;27262;-35.248;149.138;2022-11-27T14:11:46;21.90;63.00
41533;DHT22;27262;-35.248;149.138;2022-11-27T14:14:22;21.90;62.90
41533;DHT22;27262;-35.248;149.138;2022-11-27T14:17:03;21.90;63.00
41533;DHT22;27262;-35.248;149.138;2022-11-27T14:19:43;21.90;63.00
41533;DHT22;27262;-35.248;149.138;2022-11-27T14:22:28;21.80;63.00
41533;DHT22;27262;-35.248;149.138;2022-11-27T14:24:59;21.80;63.00
41533;DHT22;27262;-35.248;149.138;2022-11-27T14:27:33;21.80;63.00
41533;DHT22;27262;-35.248;149.138;2022-11-27T14:30:30;21.80;63.00
41533;DHT22;27262;-35.248;149.138;2022-11-27T14:33:04;21.80;62.90
41533;DHT22;27262;-35.248;149.138;2022-11-27T14:35:34;21.80;63.10
41533;DHT22;27262;-35.248;149.138;2022-11-27T14:38:09;21.80;63.10
41533;DHT22;27262;-35.248;149.138;2022-11-27T14:40:40;21.80;63.00
41533;DHT22;27262;-35.248;149.138;2022-11-27T14:43:17;21.80;63.10
41533;DHT22;27262;-35.248;149.138;2022-11-27T14:45:49;21.80;63.10
41533;DHT22;27262;-35.248;149.138;2022-11-27T14:48:25;21.80;63.10
41533;DHT22;27262;-35.248;149.138;2022-11-27T14:50:56;21.70;63.00
41533;DHT22;27262;-35.248;149.138;2022-11-27T14:53:27;21.70;63.10
41533;DHT22;27262;-35.248;149.138;2022-11-27T14:55:58;21.70;63.10
41533;DHT22;27262;-35.248;149.138;2022-11-27T14:58:29;21.70;63.10
41533;DHT22;27262;-35.248;149.138;2022-11-27T15:01:03;21.70;63.10
41533;DHT22;27262;-35.248;149.138;2022-11-27T15:03:33;21.70;63.20
41533;DHT22;27262;-35.248;149.138;2022-11-27T15:06:06;21.70;63.20
41533;DHT22;27262;-35.248;149.138;2022-11-27T15:08:37;21.70;63.20
41533;DHT22;27262;-35.248;149.138;2022-11-27T15:11:14;21.70;63.20
41533;DHT22;27262;-35.248;149.138;2022-11-27T15:14:11;21.70;63.20
41533;DHT22;27262;-35.248;149.138;2022-11-27T15:16:49;21.60;63.20
41533;DHT22;27262;-35.248;149.138;2022-11-27T15:19:38;21.60;63.20
41533;DHT22;27262;-35.248;149.138;2022-11-27T15:22:15;21.60;63.20
41533;DHT22;27262;-35.248;149.138;2022-11-27T15:24:56;21.60;63.30
41533;DHT22;27262;-35.248;149.138;2022-11-27T15:27:26;21.60;63.30
41533;DHT22;27262;-35.248;149.138;2022-11-27T15:30:02;21.60;63.30
41533;DHT22;27262;-35.248;149.138;2022-11-27T15:32:44;21.60;63.30
41533;DHT22;27262;-35.248;149.138;2022-11-27T15:35:28;21.60;63.30
41533;DHT22;27262;-35.248;149.138;2022-11-27T15:38:08;21.50;63.30
41533;DHT22;27262;-35.248;149.138;2022-11-27T15:40:40;21.50;63.30
41533;DHT22;27262;-35.248;149.138;2022-11-27T15:43:12;21.50;63.40
41533;DHT22;27262;-35.248;149.138;2022-11-27T15:45:43;21.50;63.40
41533;DHT22;27262;-35.248;149.138;2022-11-27T15:48:15;21.50;63.40
41533;DHT22;27262;-35.248;149.138;2022-11-27T15:50:46;21.50;63.40
41533;DHT22;27262;-35.248;149.138;2022-11-27T15:53:18;21.50;63.40
41533;DHT22;27262;-35.248;149.138;2022-11-27T15:55:49;21.50;63.40
41533;DHT22;27262;-35.248;149.138;2022-11-27T15:58:19;21.40;63.40
41533;DHT22;27262;-35.248;149.138;2022-11-27T16:00:49;21.50;63.50
41533;DHT22;27262;-35.248;149.138;2022-11-27T16:03:20;21.40;63.40
41533;DHT22;27262;-35.248;149.138;2022-11-27T16:05:50;21.50;63.50
41533;DHT22;27262;-35.248;149.138;2022-11-27T16:08:24;21.40;63.40
41533;DHT22;27262;-35.248;149.138;2022-11-27T16:11:02;21.40;63.50
41533;DHT22;27262;-35.248;149.138;2022-11-27T16:13:33;21.40;63.50
41533;DHT22;27262;-35.248;149.138;2022-11-27T16:16:05;21.40;63.50
41533;DHT22;27262;-35.248;149.138;2022-11-27T16:18:35;21.40;63.50
41533;DHT22;27262;-35.248;149.138;2022-11-27T16:21:08;21.40;63.50
41533;DHT22;27262;-35.248;149.138;2022-11-27T16:23:39;21.40;63.50
41533;DHT22;27262;-35.248;149.138;2022-11-27T16:26:14;21.30;63.50
41533;DHT22;27262;-35.248;149.138;2022-11-27T16:28:44;21.30;63.50
41533;DHT22;27262;-35.248;149.138;2022-11-27T16:31:15;21.30;63.50
41533;DHT22;27262;-35.248;149.138;2022-11-27T16:33:45;21.30;63.50
41533;DHT22;27262;-35.248;149.138;2022-11-27T16:36:17;21.30;63.50
41533;DHT22;27262;-35.248;149.138;2022-11-27T16:38:51;21.30;63.60
41533;DHT22;27262;-35.248;149.138;2022-11-27T16:41:24;21.30;63.60
41533;DHT22;27262;-35.248;149.138;2022-11-27T16:43:55;21.30;63.60
41533;DHT22;27262;-35.248;149.138;2022-11-27T16:46:28;21.20;63.50
41533;DHT22;27262;-35.248;149.138;2022-11-27T16:48:59;21.30;63.60
41533;DHT22;27262;-35.248;149.138;2022-11-27T16:51:30;21.20;63.50
41533;DHT22;27262;-35.248;149.138;2022-11-27T16:54:04;21.20;63.50
41533;DHT22;27262;-35.248;149.138;2022-11-27T16:56:35;21.20;63.50
41533;DHT22;27262;-35.248;149.138;2022-11-27T16:59:12;21.20;63.50
41533;DHT22;27262;-35.248;149.138;2022-11-27T17:01:43;21.20;63.50
41533;DHT22;27262;-35.248;149.138;2022-11-27T17:04:18;21.10;63.50
41533;DHT22;27262;-35.248;149.138;2022-11-27T17:06:49;21.20;63.60
41533;DHT22;27262;-35.248;149.138;2022-11-27T17:09:19;21.10;63.50
41533;DHT22;27262;-35.248;149.138;2022-11-27T17:11:53;21.20;63.60
41533;DHT22;27262;-35.248;149.138;2022-11-27T17:14:23;21.10;63.60
41533;DHT22;27262;-35.248;149.138;2022-11-27T17:16:55;21.10;63.60
41533;DHT22;27262;-35.248;149.138;2022-11-27T17:19:25;21.10;63.60
41533;DHT22;27262;-35.248;149.138;2022-11-27T17:21:58;21.10;63.60
41533;DHT22;27262;-35.248;149.138;2022-11-27T17:24:28;21.10;63.60
41533;DHT22;27262;-35.248;149.138;2022-11-27T17:26:59;21.10;63.60
41533;DHT22;27262;-35.248;149.138;2022-11-27T17:29:29;21.10;63.60
41533;DHT22;27262;-35.248;149.138;2022-11-27T17:32:00;21.00;63.60
41533;DHT22;27262;-35.248;149.138;2022-11-27T17:34:31;21.00;63.60